createdAt,value
2022-08-29T00:12:59.461Z,66.31
2022-08-29T00:27:50.762Z,66.77
2022-08-29T00:42:41.757Z,67.25
2022-08-29T00:57:32.579Z,66.68
2022-08-29T01:12:24.119Z,65.90
2022-08-29T01:27:14.419Z,65.64
2022-08-29T01:42:05.289Z,65.29
2022-08-29T01:56:57.310Z,64.45
2022-08-29T02:11:48.617Z,64.07
2022-08-29T02:26:40.960Z,62.90
2022-08-29T02:41:32.479Z,62.46
2022-08-29T02:56:22.663Z,62.32
2022-08-29T03:11:12.925Z,62.37
2022-08-29T03:26:04.289Z,62.10
2022-08-29T03:40:57.553Z,61.63
2022-08-29T03:55:46.601Z,60.76
2022-08-29T04:10:38.447Z,60.95
2022-08-29T04:25:32.915Z,60.85
2022-08-29T04:40:20.303Z,62.12
2022-08-29T04:55:11.787Z,62.47
2022-08-29T05:10:02.661Z,62.79
2022-08-29T05:24:53.595Z,63.62
2022-08-29T05:39:45.036Z,63.74
2022-08-29T05:54:36.344Z,63.80
2022-08-29T06:09:27.637Z,63.17
2022-08-29T06:24:18.773Z,62.29
2022-08-29T06:39:10.895Z,62.06
2022-08-29T06:54:03.826Z,60.68
2022-08-29T07:08:56.446Z,59.74
2022-08-29T07:23:46.878Z,58.18
2022-08-29T07:38:39.106Z,57.82
2022-08-29T07:53:32.353Z,57.66
2022-08-29T08:08:24.327Z,57.21
2022-08-29T08:23:17.071Z,55.88
2022-08-29T08:38:10.031Z,55.40
2022-08-29T08:53:07.859Z,53.98
2022-08-29T09:08:07.929Z,54.39
2022-08-29T09:23:07.077Z,53.30
2022-08-29T09:38:02.210Z,53.77
2022-08-29T09:53:00.737Z,53.83
2022-08-29T10:07:57.080Z,53.39
2022-08-29T10:23:05.473Z,51.79
2022-08-29T10:38:33.698Z,50.72
2022-08-29T10:53:32.603Z,49.57
2022-08-29T11:08:31.967Z,46.67
2022-08-29T11:23:40.352Z,46.69
2022-08-29T11:38:43.995Z,44.90
2022-08-29T11:53:41.198Z,44.70
2022-08-29T12:08:37.833Z,43.43
2022-08-29T12:23:35.733Z,41.24
2022-08-29T12:38:31.606Z,40.32
2022-08-29T12:53:28.987Z,39.99
2022-08-29T13:08:31.047Z,38.67
2022-08-29T13:23:28.456Z,38.11
2022-08-29T13:38:21.901Z,37.94
2022-08-29T13:53:15.350Z,37.69
2022-08-29T14:08:07.956Z,37.48
2022-08-29T14:23:00.640Z,37.07
2022-08-29T14:37:53.502Z,37.84
2022-08-29T14:52:45.907Z,36.34
2022-08-29T15:07:38.341Z,36.96
2022-08-29T15:22:34.078Z,36.40
2022-08-29T15:37:29.398Z,35.52
2022-08-29T15:52:18.245Z,37.23
2022-08-29T16:07:08.806Z,37.21
2022-08-29T16:21:59.547Z,38.01
2022-08-29T16:36:51.140Z,38.80
2022-08-29T16:51:43.553Z,38.69
2022-08-29T17:06:36.581Z,38.15
2022-08-29T17:21:27.699Z,39.23
2022-08-29T17:36:19.005Z,39.29
2022-08-29T17:51:10.778Z,40.75
2022-08-29T18:06:03.596Z,41.15
2022-08-29T18:20:56.563Z,41.03
2022-08-29T18:35:47.740Z,41.97
2022-08-29T18:50:39.591Z,42.18
2022-08-29T19:05:31.071Z,43.56
2022-08-29T19:20:41.201Z,43.88
2022-08-29T19:35:38.257Z,43.15
2022-08-29T19:50:30.874Z,43.06
2022-08-29T20:05:24.604Z,43.77
2022-08-29T20:20:16.221Z,43.20
2022-08-29T20:35:07.342Z,43.39
2022-08-29T20:49:57.959Z,44.12
2022-08-29T21:05:07.842Z,44.54
2022-08-29T21:20:05.575Z,45.46
2022-08-29T21:34:56.889Z,46.70
2022-08-29T21:49:48.113Z,47.24
2022-08-29T22:04:39.099Z,47.05
2022-08-29T22:19:30.207Z,46.44
2022-08-29T22:34:21.848Z,46.78
2022-08-29T22:49:14.075Z,46.85
2022-08-29T23:04:06.077Z,47.14
2022-08-29T23:18:56.875Z,47.56
